createdAt,value
2019-04-20T00:01:48.012Z,76382.14
2019-04-20T00:04:24.405Z,76383.75
2019-04-20T00:06:51.659Z,76373.19
2019-04-20T00:09:24.662Z,76349.45
2019-04-20T00:12:02.771Z,76345.03
2019-04-20T00:14:26.102Z,76340.70
2019-04-20T00:16:53.061Z,76340.05
2019-04-20T00:19:31.326Z,76338.37
2019-04-20T00:22:02.045Z,76340.31
2019-04-20T00:24:51.592Z,76331.48
2019-04-20T00:27:37.064Z,76333.91
2019-04-20T00:30:03.983Z,76333.14
2019-04-20T00:32:37.647Z,76334.65
2019-04-20T00:34:53.662Z,76328.09
2019-04-20T00:37:23.419Z,76329.07
2019-04-20T00:39:53.075Z,76334.97
2019-04-20T00:42:31.139Z,76326.94
2019-04-20T00:45:02.281Z,76321.41
2019-04-20T00:47:38.428Z,76310.97
2019-04-20T00:50:05.556Z,76311.33
2019-04-20T00:52:44.154Z,76306.97
2019-04-20T00:54:58.151Z,76292.61
2019-04-20T00:57:36.886Z,76298.24
2019-04-20T01:00:20.207Z,76291.61
2019-04-20T01:02:40.544Z,76291.58
2019-04-20T01:05:18.075Z,76293.39
2019-04-20T01:07:49.568Z,76281.92
2019-04-20T01:10:15.099Z,76281.92
2019-04-20T01:12:45.787Z,76275.13
2019-04-20T01:15:24.527Z,76270.97
2019-04-20T01:17:46.770Z,76260.77
2019-04-20T01:20:16.237Z,76256.72
2019-04-20T01:22:53.582Z,76262.67
2019-04-20T01:25:24.911Z,76261.89
2019-04-20T01:28:17.734Z,76249.94
2019-04-20T01:30:28.464Z,76248.88
2019-04-20T01:33:06.249Z,76248.97
2019-04-20T01:35:40.927Z,76239.80
2019-04-20T01:38:12.475Z,76234.44
2019-04-20T01:40:23.312Z,76229.05
2019-04-20T01:42:53.245Z,76215.13
2019-04-20T01:45:29.356Z,76214.58
2019-04-20T01:47:56.251Z,76225.59
2019-04-20T01:50:28.381Z,76220.30
2019-04-20T01:53:08.276Z,76215.81
2019-04-20T01:55:57.190Z,76220.94
2019-04-20T01:58:37.825Z,76221.88
2019-04-20T02:01:00.392Z,76207.70
2019-04-20T02:03:40.366Z,76202.44
2019-04-20T02:06:18.287Z,76201.92
2019-04-20T02:08:46.296Z,76198.78
2019-04-20T02:11:21.968Z,76194.05
2019-04-20T02:13:53.385Z,76195.82
2019-04-20T02:16:27.273Z,76201.08
2019-04-20T02:19:08.229Z,76194.95
2019-04-20T02:21:38.207Z,76184.20
2019-04-20T02:23:57.987Z,76192.59
2019-04-20T02:26:23.987Z,76205.73
2019-04-20T02:29:20.294Z,76201.76
2019-04-20T02:37:24.583Z,76178.77
2019-04-20T02:39:55.884Z,76173.83
2019-04-20T02:42:22.656Z,76173.22
2019-04-20T02:44:59.435Z,76158.14
2019-04-20T02:47:30.656Z,76147.69
2019-04-20T02:55:04.140Z,76137.16
2019-04-20T02:57:32.655Z,76144.33
2019-04-20T03:02:18.125Z,76149.69
2019-04-20T03:04:40.257Z,76142.56
2019-04-20T03:07:15.335Z,76138.07
2019-04-20T03:09:50.142Z,76133.88
2019-04-20T03:12:29.154Z,76126.88
2019-04-20T03:14:52.782Z,76120.64
2019-04-20T03:17:29.827Z,76123.33
2019-04-20T03:19:53.658Z,76116.30
2019-04-20T03:22:46.652Z,76109.51
2019-04-20T03:25:07.912Z,76100.24
2019-04-20T03:27:30.883Z,76092.28
2019-04-20T03:30:28.706Z,76087.50
2019-04-20T03:35:35.488Z,76082.31
2019-04-20T03:38:01.554Z,76078.38
2019-04-20T03:40:09.857Z,76074.92
2019-04-20T03:42:25.180Z,76072.83
2019-04-20T03:45:00.502Z,76073.31
2019-04-20T03:47:36.985Z,76064.67
2019-04-20T03:50:19.969Z,76058.17
2019-04-20T03:52:57.841Z,76052.37
2019-04-20T03:55:34.283Z,76059.14
2019-04-20T03:58:10.748Z,76059.47
2019-04-20T04:00:50.773Z,76057.31
2019-04-20T04:03:47.557Z,76068.63
2019-04-20T04:06:05.239Z,76060.02
2019-04-20T04:08:32.860Z,76059.66
2019-04-20T04:11:15.974Z,76060.79
2019-04-20T04:13:27.080Z,76059.70
2019-04-20T04:16:02.829Z,76059.41
2019-04-20T04:18:34.669Z,76061.66
2019-04-20T04:21:03.898Z,76051.96
2019-04-20T04:23:44.445Z,76043.15
2019-04-20T04:26:17.289Z,76038.53
2019-04-20T04:28:47.441Z,76035.67
2019-04-20T04:31:24.687Z,76039.83
2019-04-20T04:36:21.202Z,76047.38
2019-04-20T04:38:57.083Z,76044.19
2019-04-20T04:41:26.763Z,76044.15
2019-04-20T04:44:01.413Z,76050.95
2019-04-20T04:46:10.396Z,76049.83
2019-04-20T04:48:43.897Z,76051.44
2019-04-20T04:51:19.738Z,76056.12
2019-04-20T04:53:52.963Z,76059.30
2019-04-20T04:56:18.098Z,76059.89
2019-04-20T04:58:44.688Z,76071.02
2019-04-20T05:01:20.623Z,76082.77
2019-04-20T05:04:12.751Z,76081.98
2019-04-20T05:06:31.748Z,76085.92
2019-04-20T05:08:54.986Z,76086.22
2019-04-20T05:11:21.746Z,76090.92
2019-04-20T05:13:58.455Z,76083.19
2019-04-20T05:16:41.593Z,76091.92
2019-04-20T05:21:53.563Z,76093.17
2019-04-20T05:24:25.611Z,76092.90
2019-04-20T05:27:07.252Z,76092.38
2019-04-20T05:29:23.606Z,76096.86
2019-04-20T05:31:51.800Z,76097.66
2019-04-20T05:34:40.056Z,76095.80
2019-04-20T05:37:17.614Z,76100.80
2019-04-20T05:39:38.178Z,76100.95
2019-04-20T05:42:16.452Z,76103.91
2019-04-20T05:44:45.794Z,76114.94
2019-04-20T05:47:19.638Z,76139.72
2019-04-20T05:49:45.070Z,76148.20
2019-04-20T05:52:31.743Z,76154.38
2019-04-20T05:54:51.364Z,76157.53
2019-04-20T05:57:25.054Z,76164.70
2019-04-20T05:59:55.991Z,76172.42
2019-04-20T06:02:22.620Z,76181.59
2019-04-20T06:07:26.755Z,76203.31
2019-04-20T06:10:02.001Z,76208.39
2019-04-20T06:12:32.041Z,76212.42
2019-04-20T06:14:55.959Z,76210.52
2019-04-20T06:17:42.108Z,76222.88
2019-04-20T06:20:16.876Z,76232.57
2019-04-20T06:22:43.070Z,76245.02
2019-04-20T06:25:31.260Z,76256.56
2019-04-20T06:27:47.155Z,76262.03
2019-04-20T06:30:11.187Z,76264.88
2019-04-20T06:33:55.244Z,76275.11
2019-04-20T06:38:58.822Z,76292.33
2019-04-20T06:41:30.209Z,76302.47
2019-04-20T06:43:48.741Z,76314.65
2019-04-20T06:46:15.128Z,76327.25
2019-04-20T06:48:52.400Z,76337.02
2019-04-20T06:51:22.243Z,76346.00
2019-04-20T06:53:51.571Z,76365.27
2019-04-20T06:56:29.816Z,76371.80
2019-04-20T06:59:06.909Z,76397.47
2019-04-20T07:01:42.220Z,76406.52
2019-04-20T07:04:21.194Z,76413.38
2019-04-20T07:09:38.646Z,76422.56
2019-04-20T07:11:39.051Z,76435.23
2019-04-20T07:13:54.382Z,76446.30
2019-04-20T07:16:49.333Z,76452.31
2019-04-20T07:19:20.401Z,76473.33
2019-04-20T07:24:41.474Z,76501.20
2019-04-20T07:27:06.156Z,76507.43
2019-04-20T07:29:47.522Z,76515.11
2019-04-20T07:32:07.522Z,76523.20
2019-04-20T07:34:50.457Z,76529.80
2019-04-20T07:37:43.218Z,76543.51
2019-04-20T07:39:48.680Z,76558.53
2019-04-20T07:42:24.257Z,76576.82
2019-04-20T07:44:56.784Z,76587.23
2019-04-20T07:47:32.379Z,76602.39
2019-04-20T07:49:52.607Z,76615.38
2019-04-20T07:52:02.461Z,76623.14
2019-04-20T07:55:12.130Z,76636.09
2019-04-20T07:57:21.585Z,76662.69
2019-04-20T07:59:53.904Z,76679.84
2019-04-20T08:02:40.818Z,76703.40
2019-04-20T08:05:09.467Z,76701.79
2019-04-20T08:07:36.144Z,76714.00
2019-04-20T08:10:00.423Z,76728.16
2019-04-20T08:12:54.105Z,76751.48
2019-04-20T08:15:32.486Z,76768.48
2019-04-20T08:17:56.527Z,76778.20
2019-04-20T08:20:20.759Z,76799.37
2019-04-20T08:22:53.133Z,76812.03
2019-04-20T08:25:14.219Z,76814.66
2019-04-20T08:27:44.468Z,76813.89
2019-04-20T08:30:33.950Z,76817.55
2019-04-20T08:33:04.200Z,76834.56
2019-04-20T08:35:46.445Z,76838.42
2019-04-20T08:38:36.886Z,76858.25
2019-04-20T08:40:43.562Z,76873.66
2019-04-20T08:43:36.861Z,76891.84
2019-04-20T08:45:49.482Z,76908.00
2019-04-20T08:48:20.243Z,76923.46
2019-04-20T08:50:44.981Z,76943.55
2019-04-20T08:53:27.873Z,76957.53
2019-04-20T08:55:45.064Z,76966.84
2019-04-20T08:58:00.255Z,76988.72
2019-04-20T09:00:35.939Z,77009.50
2019-04-20T09:03:09.411Z,77017.86
2019-04-20T09:05:42.483Z,77023.41
2019-04-20T09:08:14.420Z,77050.74
2019-04-20T09:10:48.250Z,77066.22
2019-04-20T09:13:15.987Z,77071.48
2019-04-20T09:15:36.333Z,77077.51
2019-04-20T09:18:20.964Z,77056.17
2019-04-20T09:20:48.694Z,77067.59
2019-04-20T09:23:27.303Z,77095.50
2019-04-20T09:26:07.039Z,77107.98
2019-04-20T09:28:32.299Z,77115.52
2019-04-20T09:31:18.575Z,77125.60
2019-04-20T09:34:02.750Z,77154.61
2019-04-20T09:36:30.763Z,77174.98
2019-04-20T09:39:16.478Z,77180.08
2019-04-20T09:42:00.822Z,77203.87
2019-04-20T09:44:30.367Z,77208.14
2019-04-20T09:46:59.203Z,77235.42
2019-04-20T09:49:40.307Z,77269.32
2019-04-20T09:52:13.408Z,77314.42
2019-04-20T09:54:48.110Z,77352.09
2019-04-20T09:57:22.637Z,77372.83
2019-04-20T09:59:50.090Z,77382.77
2019-04-20T10:02:13.171Z,77402.70
2019-04-20T10:04:33.681Z,77443.06
2019-04-20T10:07:11.188Z,77427.16
2019-04-20T10:09:38.245Z,77442.73
2019-04-20T10:12:05.728Z,77518.31
2019-04-20T10:14:35.265Z,77568.18
2019-04-20T10:17:05.716Z,77551.05
2019-04-20T10:19:38.183Z,77538.25
2019-04-20T10:22:06.701Z,77578.03
2019-04-20T10:24:36.878Z,77626.02
2019-04-20T10:27:06.629Z,77660.48
2019-04-20T10:29:35.948Z,77699.39
2019-04-20T10:32:07.771Z,77762.19
2019-04-20T10:34:36.815Z,77771.22
2019-04-20T10:37:09.270Z,77737.59
2019-04-20T10:39:40.524Z,77694.50
2019-04-20T10:42:10.203Z,77727.83
2019-04-20T10:44:40.893Z,77787.00
2019-04-20T10:47:11.380Z,77881.67
2019-04-20T10:49:41.298Z,77939.66
2019-04-20T10:52:11.662Z,77975.16
2019-04-20T10:54:42.654Z,77932.97
2019-04-20T10:57:13.290Z,77884.76
2019-04-20T10:59:43.708Z,77877.91
2019-04-20T11:02:13.991Z,77861.81
2019-04-20T11:04:44.360Z,77822.45
2019-04-20T11:07:14.643Z,77828.67
2019-04-20T11:09:44.830Z,77869.21
2019-04-20T11:12:14.610Z,77961.31
2019-04-20T11:14:45.620Z,78036.39
2019-04-20T11:17:16.244Z,78107.69
2019-04-20T11:19:45.900Z,78056.50
2019-04-20T11:22:16.671Z,78034.31
2019-04-20T11:24:46.448Z,78025.48
2019-04-20T11:27:16.313Z,77987.02
2019-04-20T11:29:46.399Z,77936.22
2019-04-20T11:32:15.989Z,77970.54
2019-04-20T11:34:45.528Z,78018.30
2019-04-20T11:37:15.263Z,78048.14
2019-04-20T11:39:45.365Z,78091.98
2019-04-20T11:42:14.679Z,78122.43
2019-04-20T11:44:44.785Z,78181.70
2019-04-20T11:47:14.753Z,78287.84
2019-04-20T11:49:45.729Z,78331.48
2019-04-20T11:52:18.355Z,78299.96
2019-04-20T11:54:46.472Z,78255.23
2019-04-20T11:57:15.935Z,78288.53
2019-04-20T11:59:45.586Z,78382.60
2019-04-20T12:02:30.155Z,78421.98
2019-04-20T12:05:12.824Z,78461.13
2019-04-20T12:07:35.250Z,78463.30
2019-04-20T12:10:13.527Z,78458.16
2019-04-20T12:12:42.476Z,78502.53
2019-04-20T12:15:08.657Z,78545.38
2019-04-20T12:17:39.715Z,78532.23
2019-04-20T12:20:10.122Z,78507.59
2019-04-20T12:22:40.034Z,78497.41
2019-04-20T12:25:10.022Z,78598.42
2019-04-20T12:27:41.978Z,78638.93
2019-04-20T12:30:12.113Z,78815.55
2019-04-20T12:32:45.010Z,79067.22
2019-04-20T12:35:14.105Z,79326.69
2019-04-20T12:37:45.101Z,79562.00
2019-04-20T12:40:14.696Z,79649.83
2019-04-20T12:42:44.291Z,79741.20
2019-04-20T12:45:15.600Z,79843.23
2019-04-20T12:47:46.980Z,79848.65
2019-04-20T12:50:17.323Z,79925.39
2019-04-20T12:52:48.316Z,79943.23
2019-04-20T12:55:18.820Z,80016.69
2019-04-20T12:57:48.271Z,79882.57
2019-04-20T13:00:17.859Z,79875.77
2019-04-20T13:02:47.430Z,79908.97
2019-04-20T13:05:17.587Z,80058.34
2019-04-20T13:07:51.800Z,80162.25
2019-04-20T13:10:18.331Z,80180.02
2019-04-20T13:12:56.413Z,80217.07
2019-04-20T13:15:42.956Z,80272.16
2019-04-20T13:18:14.985Z,80159.24
2019-04-20T13:20:45.858Z,80009.84
2019-04-20T13:23:15.506Z,80028.48
2019-04-20T13:25:44.968Z,80131.98
2019-04-20T13:28:14.789Z,80220.50
2019-04-20T13:30:44.376Z,80275.45
2019-04-20T13:33:14.172Z,80290.36
2019-04-20T13:35:44.116Z,80282.33
2019-04-20T13:38:14.148Z,80220.65
2019-04-20T13:40:44.014Z,80030.76
2019-04-20T13:43:13.905Z,79977.08
2019-04-20T13:45:44.719Z,79997.45
2019-04-20T13:48:15.120Z,79965.84
2019-04-20T13:50:46.297Z,79974.53
2019-04-20T13:53:15.856Z,79914.25
2019-04-20T13:55:47.722Z,79969.67
2019-04-20T13:58:35.953Z,79964.09
2019-04-20T14:01:23.518Z,80046.05
2019-04-20T14:04:00.771Z,80053.74
2019-04-20T14:06:30.489Z,80166.11
2019-04-20T14:09:01.189Z,80184.56
2019-04-20T14:11:31.506Z,80191.20
2019-04-20T14:14:04.511Z,80187.38
2019-04-20T14:16:32.304Z,80189.73
2019-04-20T14:19:03.015Z,80255.69
2019-04-20T14:21:32.621Z,80192.91
2019-04-20T14:24:04.130Z,79807.91
2019-04-20T14:26:36.108Z,79812.48
2019-04-20T14:29:05.067Z,79833.99
2019-04-20T14:31:35.197Z,79841.05
2019-04-20T14:34:04.957Z,79784.44
2019-04-20T14:36:34.939Z,79771.45
2019-04-20T14:39:07.170Z,79813.84
2019-04-20T14:41:36.583Z,79741.94
2019-04-20T14:44:05.974Z,79639.41
2019-04-20T14:46:35.877Z,79551.50
2019-04-20T14:49:06.907Z,79486.92
2019-04-20T14:51:37.506Z,79498.31
2019-04-20T14:54:07.508Z,79468.63
2019-04-20T14:56:37.770Z,79413.83
2019-04-20T14:59:09.636Z,79377.63
2019-04-20T15:01:41.122Z,79340.82
2019-04-20T15:04:16.354Z,79300.60
2019-04-20T15:06:42.459Z,79232.45
2019-04-20T15:09:12.905Z,79135.61
2019-04-20T15:11:44.246Z,79107.16
2019-04-20T15:14:14.549Z,79132.20
2019-04-20T15:16:44.615Z,79138.13
2019-04-20T15:19:15.785Z,79158.69
2019-04-20T15:21:47.418Z,79032.05
2019-04-20T15:24:17.798Z,78923.56
2019-04-20T15:26:48.658Z,78713.45
2019-04-20T15:29:18.343Z,78660.00
2019-04-20T15:31:48.218Z,78721.30
2019-04-20T15:34:17.597Z,78642.59
2019-04-20T15:36:47.430Z,78575.50
2019-04-20T15:39:17.289Z,78585.18
2019-04-20T15:41:47.296Z,78627.63
2019-04-20T15:44:17.499Z,78630.50
2019-04-20T15:46:47.290Z,78567.23
2019-04-20T15:49:17.946Z,78508.68
2019-04-20T15:51:47.857Z,78498.19
2019-04-20T15:54:17.849Z,78507.02
2019-04-20T15:56:56.059Z,78508.89
2019-04-20T15:59:18.514Z,78488.52
2019-04-20T16:01:49.585Z,78437.52
2019-04-20T16:04:39.831Z,78386.61
2019-04-20T16:07:08.612Z,78412.35
2019-04-20T16:09:38.202Z,78416.18
2019-04-20T16:12:08.918Z,78359.12
2019-04-20T16:14:39.519Z,78342.66
2019-04-20T16:17:12.028Z,78319.41
2019-04-20T16:19:49.174Z,78269.01
2019-04-20T16:22:12.126Z,78205.19
2019-04-20T16:24:46.850Z,78188.14
2019-04-20T16:27:27.710Z,78214.31
2019-04-20T16:29:57.780Z,78182.73
2019-04-20T16:32:27.393Z,78160.84
2019-04-20T16:34:56.639Z,78164.31
2019-04-20T16:37:26.470Z,78172.47
2019-04-20T16:39:56.638Z,78149.84
2019-04-20T16:42:26.682Z,78123.58
2019-04-20T16:44:56.964Z,78114.53
2019-04-20T16:47:27.845Z,78097.58
2019-04-20T16:49:57.604Z,78064.38
2019-04-20T16:52:27.066Z,77980.56
2019-04-20T16:54:57.688Z,77862.87
2019-04-20T16:57:27.821Z,77796.77
2019-04-20T16:59:59.295Z,77780.05
2019-04-20T17:02:29.937Z,77772.70
2019-04-20T17:05:00.853Z,77752.82
2019-04-20T17:07:35.108Z,77736.13
2019-04-20T17:10:11.910Z,77728.51
2019-04-20T17:12:41.940Z,77716.81
2019-04-20T17:15:11.861Z,77692.13
2019-04-20T17:17:41.480Z,77637.89
2019-04-20T17:20:11.432Z,77586.42
2019-04-20T17:22:42.218Z,77547.28
2019-04-20T17:25:12.280Z,77505.81
2019-04-20T17:27:53.050Z,77475.13
2019-04-20T17:30:26.695Z,77434.72
2019-04-20T17:33:06.523Z,77415.94
2019-04-20T17:35:50.637Z,77413.36
2019-04-20T17:38:07.028Z,77404.28
2019-04-20T17:40:59.098Z,77395.83
2019-04-20T17:43:17.894Z,77394.09
2019-04-20T17:45:49.684Z,77390.42
2019-04-20T17:48:25.546Z,77375.34
2019-04-20T17:51:05.162Z,77360.75
2019-04-20T17:53:24.013Z,77350.47
2019-04-20T17:55:53.486Z,77341.82
2019-04-20T17:58:27.926Z,77332.31
2019-04-20T18:01:00.300Z,77320.95
2019-04-20T18:04:03.232Z,77306.88
2019-04-20T18:06:19.906Z,77297.59
2019-04-20T18:08:50.584Z,77278.61
2019-04-20T18:11:11.563Z,77274.70
2019-04-20T18:13:37.723Z,77265.80
2019-04-20T18:16:32.065Z,77260.78
2019-04-20T18:19:03.465Z,77249.73
2019-04-20T18:21:26.806Z,77236.18
2019-04-20T18:23:56.309Z,77224.67
2019-04-20T18:26:45.106Z,77217.30
2019-04-20T18:29:16.705Z,77204.30
2019-04-20T18:31:45.348Z,77194.72
2019-04-20T18:34:20.831Z,77195.83
2019-04-20T18:36:49.150Z,77188.94
2019-04-20T18:39:27.694Z,77184.48
2019-04-20T18:41:55.461Z,77168.76
2019-04-20T18:44:27.697Z,77152.25
2019-04-20T18:47:13.873Z,77126.77
2019-04-20T18:49:35.078Z,77112.23
2019-04-20T18:51:55.644Z,77092.29
2019-04-20T18:54:28.796Z,77081.56
2019-04-20T18:56:58.008Z,77067.88
2019-04-20T18:59:35.361Z,77053.48
2019-04-20T19:01:59.247Z,77037.38
2019-04-20T19:04:30.051Z,77026.77
2019-04-20T19:07:19.756Z,77040.95
2019-04-20T19:09:55.188Z,77023.26
2019-04-20T19:12:28.491Z,77015.02
2019-04-20T19:15:30.421Z,76998.45
2019-04-20T19:17:57.000Z,76982.27
2019-04-20T19:20:18.377Z,76966.82
2019-04-20T19:22:48.224Z,76945.78
2019-04-20T19:25:25.700Z,76925.22
2019-04-20T19:27:53.869Z,76905.81
2019-04-20T19:30:34.479Z,76893.14
2019-04-20T19:33:08.980Z,76880.13
2019-04-20T19:35:33.651Z,76859.77
2019-04-20T19:38:06.565Z,76837.30
2019-04-20T19:40:40.709Z,76818.80
2019-04-20T19:43:08.556Z,76811.20
2019-04-20T19:45:53.346Z,76802.90
2019-04-20T19:48:15.457Z,76795.38
2019-04-20T19:50:57.633Z,76784.45
2019-04-20T19:53:26.315Z,76780.20
2019-04-20T19:55:51.537Z,76780.70
2019-04-20T19:58:18.903Z,76781.51
2019-04-20T20:00:52.123Z,76776.77
2019-04-20T20:03:21.962Z,76768.28
2019-04-20T20:05:52.887Z,76761.80
2019-04-20T20:08:25.911Z,76754.97
2019-04-20T20:10:56.349Z,76761.94
2019-04-20T20:13:36.112Z,76755.03
2019-04-20T20:16:02.376Z,76749.27
2019-04-20T20:18:39.295Z,76740.29
2019-04-20T20:21:11.082Z,76731.67
2019-04-20T20:23:30.120Z,76719.09
2019-04-20T20:26:02.449Z,76713.06
2019-04-20T20:28:40.361Z,76708.14
2019-04-20T20:31:12.834Z,76701.47
2019-04-20T20:33:49.835Z,76690.69
2019-04-20T20:36:11.721Z,76688.94
2019-04-20T20:38:42.549Z,76676.75
2019-04-20T20:41:16.654Z,76673.27
2019-04-20T20:43:51.215Z,76668.41
2019-04-20T20:46:21.605Z,76655.09
2019-04-20T20:49:04.732Z,76646.13
2019-04-20T20:51:35.697Z,76631.64
2019-04-20T20:53:54.374Z,76624.72
2019-04-20T20:56:22.596Z,76616.86
2019-04-20T20:58:58.009Z,76606.00
2019-04-20T21:01:23.708Z,76601.50
2019-04-20T21:03:52.157Z,76594.38
2019-04-20T21:06:20.288Z,76590.45
2019-04-20T21:08:54.207Z,76586.57
2019-04-20T21:11:27.126Z,76582.53
2019-04-20T21:13:54.043Z,76573.49
2019-04-20T21:16:28.823Z,76565.34
2019-04-20T21:19:16.000Z,76562.34
2019-04-20T21:21:38.489Z,76560.13
2019-04-20T21:24:07.503Z,76557.58
2019-04-20T21:26:37.585Z,76550.84
2019-04-20T21:29:03.939Z,76542.33
2019-04-20T21:31:34.414Z,76542.36
2019-04-20T21:34:10.108Z,76535.50
2019-04-20T21:36:35.223Z,76530.39
2019-04-20T21:39:09.927Z,76520.55
2019-04-20T21:41:41.713Z,76520.59
2019-04-20T21:44:18.465Z,76513.88
2019-04-20T21:46:46.760Z,76507.61
2019-04-20T21:49:29.112Z,76503.50
2019-04-20T21:51:50.223Z,76500.03
2019-04-20T21:54:14.286Z,76494.55
2019-04-20T21:56:49.882Z,76502.02
2019-04-20T21:59:24.261Z,76495.44
2019-04-20T22:01:56.346Z,76495.31
2019-04-20T22:04:19.863Z,76491.49
2019-04-20T22:06:48.438Z,76491.79
2019-04-20T22:09:18.211Z,76486.00
2019-04-20T22:11:49.492Z,76481.47
2019-04-20T22:14:22.903Z,76481.47
2019-04-20T22:16:53.807Z,76473.58
2019-04-20T22:19:34.259Z,76468.78
2019-04-20T22:22:02.533Z,76465.55
2019-04-20T22:24:39.959Z,76458.77
2019-04-20T22:27:07.794Z,76455.95
2019-04-20T22:29:26.301Z,76446.86
2019-04-20T22:32:02.778Z,76442.72
2019-04-20T22:34:28.419Z,76439.29
2019-04-20T22:36:58.203Z,76440.27
2019-04-20T22:39:39.814Z,76433.70
2019-04-20T22:42:09.045Z,76426.20
2019-04-20T22:44:36.290Z,76419.12
2019-04-20T22:47:13.902Z,76404.63
2019-04-20T22:49:50.175Z,76404.56
2019-04-20T22:52:26.945Z,76401.50
2019-04-20T22:54:55.073Z,76397.94
2019-04-20T22:57:27.764Z,76392.13
2019-04-20T22:59:52.342Z,76387.14
2019-04-20T23:02:13.554Z,76390.45
2019-04-20T23:04:44.594Z,76385.42
2019-04-20T23:07:14.748Z,76379.57
2019-04-20T23:09:50.854Z,76374.21
2019-04-20T23:12:19.619Z,76367.14
2019-04-20T23:14:46.633Z,76363.54
2019-04-20T23:17:23.456Z,76354.20
2019-04-20T23:19:52.130Z,76356.21
2019-04-20T23:22:19.186Z,76349.48
2019-04-20T23:24:49.217Z,76343.28
2019-04-20T23:27:24.462Z,76337.63
2019-04-20T23:29:51.049Z,76334.11
2019-04-20T23:32:21.427Z,76331.77
2019-04-20T23:35:16.360Z,76319.98
2019-04-20T23:37:43.771Z,76310.19
2019-04-20T23:40:16.589Z,76306.31
2019-04-20T23:42:47.644Z,76304.63
2019-04-20T23:45:28.249Z,76301.27
2019-04-20T23:47:57.701Z,76296.81
2019-04-20T23:50:40.837Z,76297.39
2019-04-20T23:53:14.074Z,76298.03
2019-04-20T23:55:25.810Z,76298.63
2019-04-20T23:57:59.552Z,76307.70
